Temp: 13.3°C   Baro: 1022.2mb
  Wind: 2.0mph   Dir: ESE (104°)
  Rain: 0.0mm (0.0mm/hr)
  Sun: 0W/m2  Humidity: 78%

Historic data

Bath Spa Weather Station Historical Data
Daily Summary for May 16, 2024 Units:  Both    English   Metric
Daily Weekly Monthly Yearly Custom
  High: Low: Average:
Temperature: 67.5 °F /  19.7 °C 48 °F /  8.9 °C 56.7 °F /  13.7 °C
Dew Point: 54.2 °F /  12.3 °C 44.1 °F /  6.7 °C 49.5 °F /  9.7 °C
Humidity: 89% 60.4% 78%
Wind Speed: 5.4mph /  8.7km/h - 1.6mph /  2.6km/h
Wind Gust: 11mph /  17.7km/h - -
Wind- - SSE
Pressure: 29.72 in /  1006.3 hPa 29.67 in /  1004.6 hPa -
Precipitation: 0.00 in /  0 mm    
Historical Graphs
 
 
Tabular Data for May 16, 2024
Time Temperature Dew Point Pressure Wind Wind Speed Wind Gust Humidity Rainfall Rate (Hourly) solar
00:09 52.5 °F /  11.4 °C 46.6 °F /  8.1 °C 29.71in /  1006hPa Calm     80% 0.00in /  0mm 0 W/m2
00:14 52.3 °F /  11.3 °C 46.4 °F /  8 °C 29.71in /  1006hPa Calm     80% 0.00in /  0mm 0 W/m2
00:19 52.3 °F /  11.3 °C 46.3 °F /  7.9 °C 29.71in /  1006hPa Calm     80% 0.00in /  0mm 0 W/m2
00:24 52.2 °F /  11.2 °C 46.2 °F /  7.9 °C 29.71in /  1006hPa Calm     80% 0.00in /  0mm 0 W/m2
00:29 52 °F /  11.1 °C 46.4 °F /  8 °C 29.71in /  1006hPa Calm     81% 0.00in /  0mm 0 W/m2
00:34 52 °F /  11.1 °C 46.4 °F /  8 °C 29.71in /  1006hPa Calm     81% 0.00in /  0mm 0 W/m2
00:39 51.8 °F /  11 °C 46.2 °F /  7.9 °C 29.71in /  1006hPa Calm     81% 0.00in /  0mm 0 W/m2
00:44 51.6 °F /  10.9 °C 46.2 °F /  7.9 °C 29.71in /  1006hPa Calm     81.8% 0.00in /  0mm 0 W/m2
00:49 51.4 °F /  10.8 °C 46.2 °F /  7.9 °C 29.71in /  1006hPa Calm     82% 0.00in /  0mm 0 W/m2
00:54 51.3 °F /  10.7 °C 46.1 °F /  7.8 °C 29.71in /  1006hPa Calm     82% 0.00in /  0mm 0 W/m2
00:59 51.2 °F /  10.7 °C 46 °F /  7.8 °C 29.71in /  1006hPa Calm     82% 0.00in /  0mm 0 W/m2
01:04 51.1 °F /  10.6 °C 46 °F /  7.8 °C 29.71in /  1006hPa Calm     82.6% 0.00in /  0mm 0 W/m2
01:09 51 °F /  10.6 °C 45.9 °F /  7.7 °C 29.71in /  1006hPa Calm     83% 0.00in /  0mm 0 W/m2
01:14 50.8 °F /  10.4 °C 45.8 °F /  7.7 °C 29.71in /  1006hPa Calm     83% 0.00in /  0mm 0 W/m2
01:19 50.7 °F /  10.4 °C 45.7 °F /  7.6 °C 29.71in /  1006hPa Calm     83% 0.00in /  0mm 0 W/m2
01:24 50.7 °F /  10.4 °C 45.7 °F /  7.6 °C 29.71in /  1006hPa Calm     83% 0.00in /  0mm 0 W/m2
01:29 50.5 °F /  10.3 °C 45.7 °F /  7.6 °C 29.70in /  1005.6hPa Calm     83.6% 0.00in /  0mm 0 W/m2
01:34 50.5 °F /  10.3 °C 45.8 °F /  7.7 °C 29.70in /  1005.6hPa Calm     84% 0.00in /  0mm 0 W/m2
01:39 50.4 °F /  10.2 °C 45.7 °F /  7.6 °C 29.70in /  1005.6hPa Calm     84% 0.00in /  0mm 0 W/m2
01:44 50.3 °F /  10.2 °C 45.6 °F /  7.6 °C 29.70in /  1005.6hPa Calm     84% 0.00in /  0mm 0 W/m2
01:49 50.2 °F /  10.1 °C 45.5 °F /  7.5 °C 29.71in /  1006hPa Calm     84% 0.00in /  0mm 0 W/m2
01:54 49.9 °F /  9.9 °C 45.2 °F /  7.3 °C 29.71in /  1006hPa Calm     84% 0.00in /  0mm 0 W/m2
01:59 49.8 °F /  9.9 °C 45.3 °F /  7.4 °C 29.70in /  1005.6hPa Calm     84.4% 0.00in /  0mm 0 W/m2
02:04 49.8 °F /  9.9 °C 45.3 °F /  7.4 °C 29.70in /  1005.6hPa Calm     84.6% 0.00in /  0mm 0 W/m2
02:09 49.6 °F /  9.8 °C 45.2 °F /  7.3 °C 29.70in /  1005.6hPa Calm     84.8% 0.00in /  0mm 0 W/m2
02:14 49.5 °F /  9.7 °C 45.1 °F /  7.3 °C 29.70in /  1005.6hPa Calm     85% 0.00in /  0mm 0 W/m2
02:19 49.3 °F /  9.6 °C 45 °F /  7.2 °C 29.70in /  1005.6hPa Calm     85% 0.00in /  0mm 0 W/m2
02:24 49.3 °F /  9.6 °C 45 °F /  7.2 °C 29.70in /  1005.6hPa Calm     85% 0.00in /  0mm 0 W/m2
02:29 49 °F /  9.4 °C 44.7 °F /  7.1 °C 29.70in /  1005.6hPa Calm     85% 0.00in /  0mm 0 W/m2
02:34 48.9 °F /  9.4 °C 44.6 °F /  7 °C 29.70in /  1005.6hPa Calm     85% 0.00in /  0mm 0 W/m2
02:39 48.8 °F /  9.3 °C 44.5 °F /  6.9 °C 29.70in /  1005.6hPa Calm     85% 0.00in /  0mm 0 W/m2
02:44 48.7 °F /  9.3 °C 44.8 °F /  7.1 °C 29.70in /  1005.6hPa Calm     86% 0.00in /  0mm 0 W/m2
02:49 48.6 °F /  9.2 °C 44.5 °F /  6.9 °C 29.70in /  1005.6hPa Calm     85.6% 0.00in /  0mm 0 W/m2
02:54 48.4 °F /  9.1 °C 44.4 °F /  6.9 °C 29.70in /  1005.6hPa Calm     86% 0.00in /  0mm 0 W/m2
02:59 48.3 °F /  9.1 °C 44.3 °F /  6.8 °C 29.70in /  1005.6hPa Calm     86% 0.00in /  0mm 0 W/m2
03:04 48 °F /  8.9 °C 44.1 °F /  6.7 °C 29.70in /  1005.6hPa Calm     86% 0.00in /  0mm 0 W/m2
03:08 48 °F /  8.9 °C 44.1 °F /  6.7 °C 29.70in /  1005.6hPa Calm     86% 0.00in /  0mm 0 W/m2
03:14 48 °F /  8.9 °C 44.1 °F /  6.7 °C 29.70in /  1005.6hPa Calm     86% 0.00in /  0mm 0 W/m2
03:19 48 °F /  8.9 °C 44.1 °F /  6.7 °C 29.70in /  1005.6hPa Calm     86% 0.00in /  0mm 0 W/m2
03:24 48.1 °F /  8.9 °C 44.2 °F /  6.8 °C 29.70in /  1005.6hPa Calm     86% 0.00in /  0mm 0 W/m2
03:29 48.2 °F /  9 °C 44.6 °F /  7 °C 29.70in /  1005.6hPa Calm     87% 0.00in /  0mm 0 W/m2
03:34 48.4 °F /  9.1 °C 44.8 °F /  7.1 °C 29.70in /  1005.6hPa Calm     87% 0.00in /  0mm 0 W/m2
03:39 48.4 °F /  9.1 °C 44.8 °F /  7.1 °C 29.69in /  1005.3hPa Calm     87% 0.00in /  0mm 0 W/m2
03:44 48.4 °F /  9.1 °C 44.8 °F /  7.1 °C 29.69in /  1005.3hPa Calm   1mph /  1.6km/h 87% 0.00in /  0mm 0 W/m2
03:49 48.6 °F /  9.2 °C 44.9 °F /  7.2 °C 29.69in /  1005.3hPa ESE 0.2mph /  0.3km/h 1mph /  1.6km/h 87% 0.00in /  0mm 0 W/m2
03:54 48.7 °F /  9.3 °C 45 °F /  7.2 °C 29.69in /  1005.3hPa Calm     87% 0.00in /  0mm 0 W/m2
03:59 48.9 °F /  9.4 °C 45.1 °F /  7.3 °C 29.69in /  1005.3hPa ESE 0.2mph /  0.3km/h 2mph /  3.2km/h 87% 0.00in /  0mm 0 W/m2
04:04 49 °F /  9.4 °C 45.2 °F /  7.3 °C 29.69in /  1005.3hPa ESE 0.2mph /  0.3km/h 2mph /  3.2km/h 87% 0.00in /  0mm 0 W/m2
04:09 49.1 °F /  9.5 °C 45.3 °F /  7.4 °C 29.69in /  1005.3hPa Calm   2mph /  3.2km/h 87% 0.00in /  0mm 0 W/m2
04:14 49.1 °F /  9.5 °C 45.3 °F /  7.4 °C 29.69in /  1005.3hPa Calm     87% 0.00in /  0mm 0 W/m2
04:19 49 °F /  9.4 °C 45.2 °F /  7.3 °C 29.69in /  1005.3hPa Calm     87% 0.00in /  0mm 0 W/m2
04:24 49 °F /  9.4 °C 45.2 °F /  7.3 °C 29.69in /  1005.3hPa ESE 0.4mph /  0.6km/h 1mph /  1.6km/h 87% 0.00in /  0mm 0 W/m2
04:29 49.1 °F /  9.5 °C 45.3 °F /  7.4 °C 29.69in /  1005.3hPa Calm   1mph /  1.6km/h 87% 0.00in /  0mm 0 W/m2
04:34 49.1 °F /  9.5 °C 45.3 °F /  7.4 °C 29.69in /  1005.3hPa Calm     87% 0.00in /  0mm 0 W/m2
04:39 48.9 °F /  9.4 °C 45.1 °F /  7.3 °C 29.69in /  1005.3hPa Calm     87% 0.00in /  0mm 0 W/m2
04:44 48.9 °F /  9.4 °C 45.3 °F /  7.4 °C 29.69in /  1005.3hPa Calm     87.6% 0.00in /  0mm 0 W/m2
04:49 48.9 °F /  9.4 °C 45.3 °F /  7.4 °C 29.69in /  1005.3hPa Calm     87.4% 0.00in /  0mm 0 W/m2
04:54 48.9 °F /  9.4 °C 45.5 °F /  7.5 °C 29.69in /  1005.3hPa Calm     88% 0.00in /  0mm 0 W/m2
04:59 48.9 °F /  9.4 °C 45.5 °F /  7.5 °C 29.68in /  1005hPa Calm     88% 0.00in /  0mm 0 W/m2
05:04 48.8 °F /  9.3 °C 45.4 °F /  7.4 °C 29.68in /  1005hPa Calm   1mph /  1.6km/h 88% 0.00in /  0mm 0 W/m2
05:09 48.7 °F /  9.3 °C 45.3 °F /  7.4 °C 29.68in /  1005hPa Calm   1mph /  1.6km/h 88% 0.00in /  0mm 0 W/m2
05:14 48.8 °F /  9.3 °C 45.4 °F /  7.4 °C 29.68in /  1005hPa Calm   1mph /  1.6km/h 88% 0.00in /  0mm 0 W/m2
05:19 48.9 °F /  9.4 °C 45.5 °F /  7.5 °C 29.68in /  1005hPa Calm     88% 0.00in /  0mm 0 W/m2
05:24 48.7 °F /  9.3 °C 45.3 °F /  7.4 °C 29.68in /  1005hPa Calm   1mph /  1.6km/h 88% 0.00in /  0mm 7 W/m2
05:29 48.7 °F /  9.3 °C 45.3 °F /  7.4 °C 29.68in /  1005hPa Calm   1mph /  1.6km/h 88% 0.00in /  0mm 9 W/m2
05:34 48.7 °F /  9.3 °C 45.3 °F /  7.4 °C 29.69in /  1005.3hPa Calm     88% 0.00in /  0mm 11 W/m2
05:39 48.7 °F /  9.3 °C 45.3 °F /  7.4 °C 29.69in /  1005.3hPa Calm     88% 0.00in /  0mm 12 W/m2
05:44 48.7 °F /  9.3 °C 45.3 °F /  7.4 °C 29.69in /  1005.3hPa Calm     88% 0.00in /  0mm 18 W/m2
05:49 48.6 °F /  9.2 °C 45.1 °F /  7.3 °C 29.69in /  1005.3hPa Calm     88% 0.00in /  0mm 23 W/m2
05:54 48.5 °F /  9.2 °C 45.1 °F /  7.3 °C 29.69in /  1005.3hPa ESE 0.4mph /  0.6km/h 2mph /  3.2km/h 88% 0.00in /  0mm 26 W/m2
05:59 48.4 °F /  9.1 °C 45 °F /  7.2 °C 29.69in /  1005.3hPa ESE 0.6mph /  1km/h 2mph /  3.2km/h 88% 0.00in /  0mm 30 W/m2
06:04 48.4 °F /  9.1 °C 45 °F /  7.2 °C 29.69in /  1005.3hPa ESE 0.6mph /  1km/h 3mph /  4.8km/h 88% 0.00in /  0mm 30 W/m2
06:09 48.4 °F /  9.1 °C 45 °F /  7.2 °C 29.69in /  1005.3hPa Calm   1mph /  1.6km/h 88% 0.00in /  0mm 32 W/m2
06:14 48.4 °F /  9.1 °C 45 °F /  7.2 °C 29.69in /  1005.3hPa ESE 1.8mph /  2.9km/h 3mph /  4.8km/h 88% 0.00in /  0mm 33 W/m2
06:19 48.3 °F /  9.1 °C 44.9 °F /  7.2 °C 29.70in /  1005.6hPa ESE 0.5mph /  0.8km/h 3mph /  4.8km/h 88% 0.00in /  0mm 37 W/m2
06:24 48.4 °F /  9.1 °C 45 °F /  7.2 °C 29.70in /  1005.6hPa Calm   1mph /  1.6km/h 88% 0.00in /  0mm 44 W/m2
06:29 48.4 °F /  9.1 °C 45 °F /  7.2 °C 29.70in /  1005.6hPa ESE 0.9mph /  1.4km/h 3mph /  4.8km/h 88% 0.00in /  0mm 53 W/m2
06:34 48.6 °F /  9.2 °C 45.4 °F /  7.4 °C 29.70in /  1005.6hPa Calm   1mph /  1.6km/h 88.8% 0.00in /  0mm 62 W/m2
06:39 48.7 °F /  9.3 °C 45.2 °F /  7.3 °C 29.70in /  1005.6hPa Calm   1mph /  1.6km/h 88% 0.00in /  0mm 70 W/m2
06:44 48.8 °F /  9.3 °C 45.4 °F /  7.4 °C 29.70in /  1005.6hPa Calm   1mph /  1.6km/h 88% 0.00in /  0mm 72 W/m2
06:49 48.9 °F /  9.4 °C 45.8 °F /  7.7 °C 29.70in /  1005.6hPa Calm     88.6% 0.00in /  0mm 70 W/m2
06:54 49.3 °F /  9.6 °C 46.2 °F /  7.9 °C 29.70in /  1005.6hPa ESE 0.2mph /  0.3km/h 2mph /  3.2km/h 89% 0.00in /  0mm 70 W/m2
06:59 49.3 °F /  9.6 °C 46 °F /  7.8 °C 29.70in /  1005.6hPa East 2mph /  3.2km/h 4mph /  6.4km/h 88.2% 0.00in /  0mm 76 W/m2
07:04 49.5 °F /  9.7 °C 46 °F /  7.8 °C 29.70in /  1005.6hPa East 2mph /  3.2km/h 4mph /  6.4km/h 88% 0.00in /  0mm 83 W/m2
07:09 49.5 °F /  9.7 °C 46 °F /  7.8 °C 29.70in /  1005.6hPa East 0.6mph /  1km/h 3mph /  4.8km/h 88% 0.00in /  0mm 93 W/m2
07:14 49.7 °F /  9.8 °C 46.3 °F /  7.9 °C 29.70in /  1005.6hPa Calm     88% 0.00in /  0mm 97 W/m2
07:19 49.9 °F /  9.9 °C 46.5 °F /  8.1 °C 29.70in /  1005.6hPa East 0.4mph /  0.6km/h 2mph /  3.2km/h 88% 0.00in /  0mm 111 W/m2
07:24 50 °F /  10 °C 46.2 °F /  7.9 °C 29.70in /  1005.6hPa East 0.2mph /  0.3km/h 3mph /  4.8km/h 87% 0.00in /  0mm 118 W/m2
07:29 50.3 °F /  10.2 °C 46.5 °F /  8.1 °C 29.70in /  1005.6hPa Calm   3mph /  4.8km/h 87% 0.00in /  0mm 123 W/m2
07:34 50.4 °F /  10.2 °C 46.7 °F /  8.2 °C 29.70in /  1005.6hPa East 0.4mph /  0.6km/h 2mph /  3.2km/h 87% 0.00in /  0mm 120 W/m2
07:39 50.5 °F /  10.3 °C 46.8 °F /  8.2 °C 29.70in /  1005.6hPa East 2.2mph /  3.5km/h 4mph /  6.4km/h 87% 0.00in /  0mm 134 W/m2
07:44 50.7 °F /  10.4 °C 46.9 °F /  8.3 °C 29.70in /  1005.6hPa ESE 1.2mph /  1.9km/h 3mph /  4.8km/h 87% 0.00in /  0mm 142 W/m2
07:49 51 °F /  10.6 °C 47 °F /  8.3 °C 29.70in /  1005.6hPa ESE 1.6mph /  2.6km/h 4mph /  6.4km/h 86% 0.00in /  0mm 151 W/m2
07:54 51.2 °F /  10.7 °C 47.2 °F /  8.4 °C 29.70in /  1005.6hPa ESE 1.5mph /  2.4km/h 4mph /  6.4km/h 86% 0.00in /  0mm 160 W/m2
07:59 51.4 °F /  10.8 °C 47.2 °F /  8.4 °C 29.70in /  1005.6hPa ESE 2mph /  3.2km/h 4mph /  6.4km/h 85.3% 0.00in /  0mm 174 W/m2
08:04 51.6 °F /  10.9 °C 47.3 °F /  8.5 °C 29.70in /  1005.6hPa SE 2.9mph /  4.7km/h 5mph /  8km/h 85% 0.00in /  0mm 197 W/m2
08:09 52 °F /  11.1 °C 47.3 °F /  8.5 °C 29.70in /  1005.6hPa ESE 1.7mph /  2.7km/h 5mph /  8km/h 84% 0.00in /  0mm 218 W/m2
08:14 52.3 °F /  11.3 °C 47.6 °F /  8.7 °C 29.70in /  1005.6hPa SE 2mph /  3.2km/h 4mph /  6.4km/h 84% 0.00in /  0mm 236 W/m2
08:19 52.5 °F /  11.4 °C 47.5 °F /  8.6 °C 29.70in /  1005.6hPa SE 2.9mph /  4.7km/h 6mph /  9.7km/h 83% 0.00in /  0mm 272 W/m2
08:24 52.9 °F /  11.6 °C 47.9 °F /  8.8 °C 29.70in /  1005.6hPa SE 2.5mph /  4km/h 4mph /  6.4km/h 83% 0.00in /  0mm 299 W/m2
08:29 53.5 °F /  11.9 °C 48.3 °F /  9.1 °C 29.70in /  1005.6hPa SE 1.3mph /  2.1km/h 4mph /  6.4km/h 82.4% 0.00in /  0mm 308 W/m2
08:34 54.1 °F /  12.3 °C 48.7 °F /  9.3 °C 29.70in /  1005.6hPa SE 1.3mph /  2.1km/h 5mph /  8km/h 81.8% 0.00in /  0mm 285 W/m2
08:39 54.8 °F /  12.7 °C 49 °F /  9.4 °C 29.70in /  1005.6hPa SE 1.1mph /  1.8km/h 4mph /  6.4km/h 81% 0.00in /  0mm 295 W/m2
08:44 55.3 °F /  12.9 °C 49.3 °F /  9.6 °C 29.70in /  1005.6hPa SE 1.7mph /  2.7km/h 4mph /  6.4km/h 80.4% 0.00in /  0mm 336 W/m2
08:49 55.7 °F /  13.2 °C 49.3 °F /  9.6 °C 29.70in /  1005.6hPa East 4.9mph /  7.9km/h 9mph /  14.5km/h 79% 0.00in /  0mm 346 W/m2
08:54 56.2 °F /  13.4 °C 49.4 °F /  9.7 °C 29.70in /  1005.6hPa East 2.8mph /  4.5km/h 8mph /  12.9km/h 78% 0.00in /  0mm 350 W/m2
08:59 56.7 °F /  13.7 °C 49.3 °F /  9.6 °C 29.70in /  1005.6hPa East 2.9mph /  4.7km/h 8mph /  12.9km/h 76.6% 0.00in /  0mm 323 W/m2
09:04 57 °F /  13.9 °C 49.3 °F /  9.6 °C 29.70in /  1005.6hPa East 4.5mph /  7.2km/h 9mph /  14.5km/h 75.6% 0.00in /  0mm 323 W/m2
09:09 57.2 °F /  14 °C 49.3 °F /  9.6 °C 29.70in /  1005.6hPa East 3.3mph /  5.3km/h 9mph /  14.5km/h 75% 0.00in /  0mm 311 W/m2
09:14 57.5 °F /  14.2 °C 49.4 °F /  9.7 °C 29.70in /  1005.6hPa ESE 2.1mph /  3.4km/h 4mph /  6.4km/h 74.6% 0.00in /  0mm 279 W/m2
09:19 57.7 °F /  14.3 °C 49.5 °F /  9.7 °C 29.70in /  1005.6hPa ESE 1.3mph /  2.1km/h 4mph /  6.4km/h 74% 0.00in /  0mm 278 W/m2
09:24 57.8 °F /  14.3 °C 49.6 °F /  9.8 °C 29.70in /  1005.6hPa East 2.3mph /  3.7km/h 6mph /  9.7km/h 74% 0.00in /  0mm 272 W/m2
09:29 58.2 °F /  14.6 °C 49.7 °F /  9.8 °C 29.70in /  1005.6hPa East 0.9mph /  1.4km/h 4mph /  6.4km/h 73.6% 0.00in /  0mm 294 W/m2
09:34 58.3 °F /  14.6 °C 49.6 °F /  9.8 °C 29.70in /  1005.6hPa ESE 2mph /  3.2km/h 4mph /  6.4km/h 73% 0.00in /  0mm 336 W/m2
09:39 57.9 °F /  14.4 °C 49.3 °F /  9.6 °C 29.70in /  1005.6hPa SE 2.1mph /  3.4km/h 6mph /  9.7km/h 73% 0.00in /  0mm 360 W/m2
09:44 57.9 °F /  14.4 °C 49.3 °F /  9.6 °C 29.70in /  1005.6hPa ESE 1.3mph /  2.1km/h 6mph /  9.7km/h 73% 0.00in /  0mm 367 W/m2
09:49 58.1 °F /  14.5 °C 49.5 °F /  9.7 °C 29.70in /  1005.6hPa ESE 2mph /  3.2km/h 4mph /  6.4km/h 73% 0.00in /  0mm 350 W/m2
09:54 58.2 °F /  14.6 °C 49.5 °F /  9.7 °C 29.70in /  1005.6hPa ESE 1.6mph /  2.6km/h 4mph /  6.4km/h 73% 0.00in /  0mm 357 W/m2
09:59 58.6 °F /  14.8 °C 49.9 °F /  9.9 °C 29.70in /  1005.6hPa ESE 1mph /  1.6km/h 4mph /  6.4km/h 73% 0.00in /  0mm 399 W/m2
10:04 59 °F /  15 °C 50.3 °F /  10.2 °C 29.70in /  1005.6hPa ESE 2.9mph /  4.7km/h 6mph /  9.7km/h 72.8% 0.00in /  0mm 424 W/m2
10:09 59.2 °F /  15.1 °C 50.2 °F /  10.1 °C 29.70in /  1005.6hPa East 4.2mph /  6.8km/h 8mph /  12.9km/h 72% 0.00in /  0mm 427 W/m2
10:14 59.7 °F /  15.4 °C 50.7 °F /  10.4 °C 29.70in /  1005.6hPa ESE 3.2mph /  5.1km/h 7mph /  11.3km/h 72.2% 0.00in /  0mm 424 W/m2
10:19 60.1 °F /  15.6 °C 51.1 °F /  10.6 °C 29.70in /  1005.6hPa ENE 2.5mph /  4km/h 7mph /  11.3km/h 72% 0.00in /  0mm 410 W/m2
10:24 60.4 °F /  15.8 °C 51.3 °F /  10.7 °C 29.70in /  1005.6hPa ESE 3.2mph /  5.1km/h 7mph /  11.3km/h 71.8% 0.00in /  0mm 413 W/m2
10:29 60.9 °F /  16.1 °C 51.4 °F /  10.8 °C 29.70in /  1005.6hPa East 2.8mph /  4.5km/h 8mph /  12.9km/h 71% 0.00in /  0mm 420 W/m2
10:34 61.1 °F /  16.2 °C 51.5 °F /  10.8 °C 29.70in /  1005.6hPa East 2.8mph /  4.5km/h 8mph /  12.9km/h 71% 0.00in /  0mm 422 W/m2
10:39 61.2 °F /  16.2 °C 51.6 °F /  10.9 °C 29.70in /  1005.6hPa ESE 3.5mph /  5.6km/h 8mph /  12.9km/h 71% 0.00in /  0mm 420 W/m2
10:44 61.2 °F /  16.2 °C 51.6 °F /  10.9 °C 29.70in /  1005.6hPa East 1.9mph /  3.1km/h 7mph /  11.3km/h 71% 0.00in /  0mm 410 W/m2
10:49 61.2 °F /  16.2 °C 51.4 °F /  10.8 °C 29.70in /  1005.6hPa ESE 2.5mph /  4km/h 6mph /  9.7km/h 70.4% 0.00in /  0mm 403 W/m2
10:54 61.2 °F /  16.2 °C 51.3 °F /  10.7 °C 29.70in /  1005.6hPa NE 1.4mph /  2.3km/h 5mph /  8km/h 70% 0.00in /  0mm 396 W/m2
10:59 61.3 °F /  16.3 °C 51.4 °F /  10.8 °C 29.70in /  1005.6hPa East 2.5mph /  4km/h 7mph /  11.3km/h 70% 0.00in /  0mm 399 W/m2
11:04 61.7 °F /  16.5 °C 51.5 °F /  10.8 °C 29.70in /  1005.6hPa ESE 3.4mph /  5.5km/h 8mph /  12.9km/h 69.2% 0.00in /  0mm 406 W/m2
11:09 62 °F /  16.7 °C 51.2 °F /  10.7 °C 29.70in /  1005.6hPa ESE 3.1mph /  5km/h 9mph /  14.5km/h 67.8% 0.00in /  0mm 408 W/m2
11:14 61.9 °F /  16.6 °C 50.7 °F /  10.4 °C 29.70in /  1005.6hPa ESE 4.5mph /  7.2km/h 9mph /  14.5km/h 67% 0.00in /  0mm 403 W/m2
11:19 62 °F /  16.7 °C 51 °F /  10.6 °C 29.70in /  1005.6hPa ESE 4.4mph /  7.1km/h 9mph /  14.5km/h 67.4% 0.00in /  0mm 396 W/m2
11:24 62.3 °F /  16.8 °C 52 °F /  11.1 °C 29.70in /  1005.6hPa East 5mph /  8km/h 9mph /  14.5km/h 68.8% 0.00in /  0mm 378 W/m2
11:29 62.6 °F /  17 °C 52.3 °F /  11.3 °C 29.70in /  1005.6hPa East 2.9mph /  4.7km/h 10mph /  16.1km/h 68.8% 0.00in /  0mm 359 W/m2
11:34 62.8 °F /  17.1 °C 52 °F /  11.1 °C 29.70in /  1005.6hPa ENE 5.3mph /  8.5km/h 10mph /  16.1km/h 68% 0.00in /  0mm 332 W/m2
11:39 62.8 °F /  17.1 °C 52 °F /  11.1 °C 29.70in /  1005.6hPa ENE 2.9mph /  4.7km/h 7mph /  11.3km/h 68% 0.00in /  0mm 359 W/m2
11:44 62.9 °F /  17.2 °C 52 °F /  11.1 °C 29.70in /  1005.6hPa ENE 3.7mph /  6km/h 8mph /  12.9km/h 67.8% 0.00in /  0mm 373 W/m2
11:49 62.9 °F /  17.2 °C 52.1 °F /  11.2 °C 29.70in /  1005.6hPa East 3.5mph /  5.6km/h 7mph /  11.3km/h 68% 0.00in /  0mm 381 W/m2
11:54 63 °F /  17.2 °C 52.5 °F /  11.4 °C 29.70in /  1005.6hPa East 2.3mph /  3.7km/h 9mph /  14.5km/h 68.6% 0.00in /  0mm 387 W/m2
11:59 62.8 °F /  17.1 °C 52 °F /  11.1 °C 29.70in /  1005.6hPa East 1.9mph /  3.1km/h 10mph /  16.1km/h 68% 0.00in /  0mm 388 W/m2
12:04 63 °F /  17.2 °C 52.2 °F /  11.2 °C 29.70in /  1005.6hPa East 4.7mph /  7.6km/h 8mph /  12.9km/h 68% 0.00in /  0mm 387 W/m2
12:09 63.1 °F /  17.3 °C 52.2 °F /  11.2 °C 29.70in /  1005.6hPa NE 2.8mph /  4.5km/h 8mph /  12.9km/h 67.4% 0.00in /  0mm 385 W/m2
12:14 63.4 °F /  17.4 °C 52.5 °F /  11.4 °C 29.70in /  1005.6hPa East 3.3mph /  5.3km/h 7mph /  11.3km/h 67.8% 0.00in /  0mm 396 W/m2
12:19 63.8 °F /  17.7 °C 52.8 °F /  11.6 °C 29.70in /  1005.6hPa NE 4mph /  6.4km/h 8mph /  12.9km/h 67.4% 0.00in /  0mm 403 W/m2
12:24 63.9 °F /  17.7 °C 52.5 °F /  11.4 °C 29.70in /  1005.6hPa East 2mph /  3.2km/h 9mph /  14.5km/h 66.6% 0.00in /  0mm 420 W/m2
12:29 63.9 °F /  17.7 °C 52.5 °F /  11.4 °C 29.70in /  1005.6hPa ENE 3.5mph /  5.6km/h 8mph /  12.9km/h 66.4% 0.00in /  0mm 446 W/m2
12:34 63.6 °F /  17.6 °C 52.3 °F /  11.3 °C 29.70in /  1005.6hPa SE 1.3mph /  2.1km/h 8mph /  12.9km/h 66.6% 0.00in /  0mm 475 W/m2
12:39 63.4 °F /  17.4 °C 52.6 °F /  11.4 °C 29.70in /  1005.6hPa East 3.6mph /  5.8km/h 6mph /  9.7km/h 67.8% 0.00in /  0mm 499 W/m2
12:44 64 °F /  17.8 °C 52.9 °F /  11.6 °C 29.70in /  1005.6hPa ENE 2.9mph /  4.7km/h 7mph /  11.3km/h 67% 0.00in /  0mm 533 W/m2
12:49 63.9 °F /  17.7 °C 52.5 °F /  11.4 °C 29.70in /  1005.6hPa SE 2.5mph /  4km/h 5mph /  8km/h 66.2% 0.00in /  0mm 580 W/m2
12:54 63.2 °F /  17.3 °C 52.1 °F /  11.2 °C 29.70in /  1005.6hPa ESE 2mph /  3.2km/h 7mph /  11.3km/h 67% 0.00in /  0mm 617 W/m2
12:59 63.9 °F /  17.7 °C 52.9 °F /  11.6 °C 29.70in /  1005.6hPa NE 1.7mph /  2.7km/h 5mph /  8km/h 67.4% 0.00in /  0mm 626 W/m2
13:04 65.1 °F /  18.4 °C 53.6 °F /  12 °C 29.70in /  1005.6hPa NNE 2.2mph /  3.5km/h 6mph /  9.7km/h 66.4% 0.00in /  0mm 615 W/m2
13:09 65.2 °F /  18.4 °C 53.1 °F /  11.7 °C 29.70in /  1005.6hPa SE 4.1mph /  6.6km/h 7mph /  11.3km/h 64.8% 0.00in /  0mm 568 W/m2
13:14 63.7 °F /  17.6 °C 52 °F /  11.1 °C 29.70in /  1005.6hPa North 2.9mph /  4.7km/h 6mph /  9.7km/h 66% 0.00in /  0mm 515 W/m2
13:19 64 °F /  17.8 °C 52.6 °F /  11.4 °C 29.70in /  1005.6hPa NNE 4.8mph /  7.7km/h 8mph /  12.9km/h 66.4% 0.00in /  0mm 448 W/m2
13:24 64.6 °F /  18.1 °C 52.9 °F /  11.6 °C 29.70in /  1005.6hPa NE 4mph /  6.4km/h 7mph /  11.3km/h 66% 0.00in /  0mm 418 W/m2
13:29 65.1 °F /  18.4 °C 53.1 °F /  11.7 °C 29.70in /  1005.6hPa ENE 3.3mph /  5.3km/h 8mph /  12.9km/h 65% 0.00in /  0mm 475 W/m2
13:34 65.8 °F /  18.8 °C 53.2 °F /  11.8 °C 29.69in /  1005.3hPa NE 3.6mph /  5.8km/h 7mph /  11.3km/h 63.8% 0.00in /  0mm 494 W/m2
13:39 66.3 °F /  19.1 °C 53.3 °F /  11.8 °C 29.69in /  1005.3hPa NNE 2.8mph /  4.5km/h 7mph /  11.3km/h 63% 0.00in /  0mm 499 W/m2
13:44 66.5 °F /  19.2 °C 53.5 °F /  11.9 °C 29.69in /  1005.3hPa NE 2.9mph /  4.7km/h 5mph /  8km/h 63% 0.00in /  0mm 515 W/m2
13:49 66.6 °F /  19.2 °C 53.5 °F /  11.9 °C 29.69in /  1005.3hPa NE 3.3mph /  5.3km/h 6mph /  9.7km/h 62.8% 0.00in /  0mm 536 W/m2
13:54 66.9 °F /  19.4 °C 53.2 °F /  11.8 °C 29.69in /  1005.3hPa ENE 0.7mph /  1.1km/h 6mph /  9.7km/h 61.6% 0.00in /  0mm 520 W/m2
13:59 66.9 °F /  19.4 °C 53.1 °F /  11.7 °C 29.68in /  1005hPa NE 4.2mph /  6.8km/h 8mph /  12.9km/h 61.2% 0.00in /  0mm 519 W/m2
14:04 66.3 °F /  19.1 °C 52.6 °F /  11.4 °C 29.68in /  1005hPa NNE 2.8mph /  4.5km/h 8mph /  12.9km/h 61.4% 0.00in /  0mm 503 W/m2
14:09 65.8 °F /  18.8 °C 52.9 °F /  11.6 °C 29.68in /  1005hPa ESE 2.2mph /  3.5km/h 4mph /  6.4km/h 62.8% 0.00in /  0mm 513 W/m2
14:14 66 °F /  18.9 °C 52.7 °F /  11.5 °C 29.68in /  1005hPa ESE 1.2mph /  1.9km/h 8mph /  12.9km/h 62.2% 0.00in /  0mm 519 W/m2
14:19 65.7 °F /  18.7 °C 52.2 °F /  11.2 °C 29.68in /  1005hPa ESE 2mph /  3.2km/h 3mph /  4.8km/h 61.6% 0.00in /  0mm 490 W/m2
14:24 65 °F /  18.3 °C 52.2 °F /  11.2 °C 29.68in /  1005hPa ESE 0.9mph /  1.4km/h 3mph /  4.8km/h 63.2% 0.00in /  0mm 461 W/m2
14:29 65.3 °F /  18.5 °C 52.4 °F /  11.3 °C 29.68in /  1005hPa North 2.4mph /  3.9km/h 6mph /  9.7km/h 63.2% 0.00in /  0mm 480 W/m2
14:34 65.7 °F /  18.7 °C 52.7 °F /  11.5 °C 29.68in /  1005hPa NNE 2.2mph /  3.5km/h 6mph /  9.7km/h 62.8% 0.00in /  0mm 471 W/m2
14:39 66.1 °F /  18.9 °C 52.7 °F /  11.5 °C 29.68in /  1005hPa SE 1.5mph /  2.4km/h 4mph /  6.4km/h 61.8% 0.00in /  0mm 445 W/m2
14:44 65.8 °F /  18.8 °C 52.2 °F /  11.2 °C 29.68in /  1005hPa East 2.4mph /  3.9km/h 6mph /  9.7km/h 61.4% 0.00in /  0mm 431 W/m2
14:49 66.3 °F /  19.1 °C 52.6 °F /  11.4 °C 29.68in /  1005hPa East 2mph /  3.2km/h 6mph /  9.7km/h 61.4% 0.00in /  0mm 432 W/m2
14:54 66.2 °F /  19 °C 52.3 °F /  11.3 °C 29.68in /  1005hPa ENE 1.6mph /  2.6km/h 5mph /  8km/h 60.8% 0.00in /  0mm 415 W/m2
14:59 66.4 °F /  19.1 °C 52.9 °F /  11.6 °C 29.68in /  1005hPa ENE 2mph /  3.2km/h 7mph /  11.3km/h 61.8% 0.00in /  0mm 425 W/m2
15:04 66.9 °F /  19.4 °C 53.6 °F /  12 °C 29.68in /  1005hPa ENE 2.4mph /  3.9km/h 4mph /  6.4km/h 62.2% 0.00in /  0mm 418 W/m2
15:09 67.4 °F /  19.7 °C 53.6 °F /  12 °C 29.68in /  1005hPa ENE 1.6mph /  2.6km/h 4mph /  6.4km/h 61.2% 0.00in /  0mm 394 W/m2
15:14 67.5 °F /  19.7 °C 53.5 °F /  11.9 °C 29.68in /  1005hPa ENE 0.4mph /  0.6km/h 2mph /  3.2km/h 60.6% 0.00in /  0mm 362 W/m2
15:19 67.2 °F /  19.6 °C 53 °F /  11.7 °C 29.67in /  1004.6hPa East 2mph /  3.2km/h 7mph /  11.3km/h 60.4% 0.00in /  0mm 336 W/m2
15:24 66.8 °F /  19.3 °C 53 °F /  11.7 °C 29.67in /  1004.6hPa SE 1.3mph /  2.1km/h 5mph /  8km/h 61% 0.00in /  0mm 306 W/m2
15:29 66.2 °F /  19 °C 52.5 °F /  11.4 °C 29.67in /  1004.6hPa ESE 2mph /  3.2km/h 5mph /  8km/h 61.2% 0.00in /  0mm 329 W/m2
15:34 65.8 °F /  18.8 °C 52.8 °F /  11.6 °C 29.67in /  1004.6hPa ESE 2.1mph /  3.4km/h 4mph /  6.4km/h 63% 0.00in /  0mm 336 W/m2
15:39 65.4 °F /  18.6 °C 52.4 °F /  11.3 °C 29.67in /  1004.6hPa ESE 1.7mph /  2.7km/h 5mph /  8km/h 63% 0.00in /  0mm 323 W/m2
15:44 65.2 °F /  18.4 °C 52.4 °F /  11.3 °C 29.67in /  1004.6hPa SE 1.2mph /  1.9km/h 4mph /  6.4km/h 63.3% 0.00in /  0mm 313 W/m2
15:48 64.9 °F /  18.3 °C 52.3 °F /  11.3 °C 29.67in /  1004.6hPa SE 3mph /  4.8km/h 5mph /  8km/h 63.5% 0.00in /  0mm 325 W/m2
15:54 64.8 °F /  18.2 °C 52.3 °F /  11.3 °C 29.67in /  1004.6hPa SE 2mph /  3.2km/h 5mph /  8km/h 64% 0.00in /  0mm 327 W/m2
15:59 65.2 °F /  18.4 °C 53.1 °F /  11.7 °C 29.67in /  1004.6hPa East 2.5mph /  4km/h 5mph /  8km/h 64.8% 0.00in /  0mm 315 W/m2
16:04 65.8 °F /  18.8 °C 53.2 °F /  11.8 °C 29.67in /  1004.6hPa East 1.2mph /  1.9km/h 3mph /  4.8km/h 63.8% 0.00in /  0mm 285 W/m2
16:09 65.7 °F /  18.7 °C 52.4 °F /  11.3 °C 29.67in /  1004.6hPa ESE 1.7mph /  2.7km/h 4mph /  6.4km/h 62.2% 0.00in /  0mm 276 W/m2
16:14 64.7 °F /  18.2 °C 51.7 °F /  10.9 °C 29.67in /  1004.6hPa SE 1.7mph /  2.7km/h 4mph /  6.4km/h 63% 0.00in /  0mm 265 W/m2
16:19 64.2 °F /  17.9 °C 51.8 °F /  11 °C 29.67in /  1004.6hPa SE 1.7mph /  2.7km/h 4mph /  6.4km/h 63.8% 0.00in /  0mm 257 W/m2
16:24 64.6 °F /  18.1 °C 52.3 °F /  11.3 °C 29.67in /  1004.6hPa SE 1.5mph /  2.4km/h 4mph /  6.4km/h 64.4% 0.00in /  0mm 281 W/m2
16:29 65.2 °F /  18.4 °C 52.5 °F /  11.4 °C 29.67in /  1004.6hPa SE 1mph /  1.6km/h 3mph /  4.8km/h 63.4% 0.00in /  0mm 278 W/m2
16:34 64.9 °F /  18.3 °C 52.2 °F /  11.2 °C 29.67in /  1004.6hPa ESE 1.3mph /  2.1km/h 5mph /  8km/h 63.4% 0.00in /  0mm 265 W/m2
16:39 65.5 °F /  18.6 °C 52.7 °F /  11.5 °C 29.67in /  1004.6hPa East 1.6mph /  2.6km/h 5mph /  8km/h 63.4% 0.00in /  0mm 236 W/m2
16:44 66.1 °F /  18.9 °C 52.5 °F /  11.4 °C 29.67in /  1004.6hPa East 2.7mph /  4.3km/h 5mph /  8km/h 61.4% 0.00in /  0mm 221 W/m2
16:49 66.5 °F /  19.2 °C 52.4 °F /  11.3 °C 29.67in /  1004.6hPa East 1.9mph /  3.1km/h 5mph /  8km/h 60.4% 0.00in /  0mm 211 W/m2
16:54 66.8 °F /  19.3 °C 52.9 °F /  11.6 °C 29.67in /  1004.6hPa East 1mph /  1.6km/h 3mph /  4.8km/h 60.8% 0.00in /  0mm 220 W/m2
16:59 66.5 °F /  19.2 °C 52.5 °F /  11.4 °C 29.67in /  1004.6hPa East 0.6mph /  1km/h 2mph /  3.2km/h 60.6% 0.00in /  0mm 227 W/m2
17:04 65.8 °F /  18.8 °C 52.1 °F /  11.2 °C 29.67in /  1004.6hPa SSE 2.5mph /  4km/h 9mph /  14.5km/h 61.4% 0.00in /  0mm 207 W/m2
17:09 63.6 °F /  17.6 °C 54 °F /  12.2 °C 29.67in /  1004.6hPa SSE 4.6mph /  7.4km/h 9mph /  14.5km/h 71% 0.00in /  0mm 214 W/m2
17:14 62.4 °F /  16.9 °C 54.2 °F /  12.3 °C 29.67in /  1004.6hPa South 2.5mph /  4km/h 7mph /  11.3km/h 74.6% 0.00in /  0mm 204 W/m2
17:19 61.9 °F /  16.6 °C 54.2 °F /  12.3 °C 29.67in /  1004.6hPa SSW 4.8mph /  7.7km/h 7mph /  11.3km/h 75.8% 0.00in /  0mm 186 W/m2
17:24 61.4 °F /  16.3 °C 54.1 °F /  12.3 °C 29.67in /  1004.6hPa South 4.3mph /  6.9km/h 8mph /  12.9km/h 76.6% 0.00in /  0mm 139 W/m2
17:29 61.2 °F /  16.2 °C 53.7 °F /  12.1 °C 29.67in /  1004.6hPa South 3mph /  4.8km/h 8mph /  12.9km/h 76.4% 0.00in /  0mm 113 W/m2
17:34 61 °F /  16.1 °C 53.4 °F /  11.9 °C 29.67in /  1004.6hPa SSW 4.9mph /  7.9km/h 9mph /  14.5km/h 76% 0.00in /  0mm 105 W/m2
17:39 60.4 °F /  15.8 °C 52.9 °F /  11.6 °C 29.67in /  1004.6hPa South 3.7mph /  6km/h 9mph /  14.5km/h 76% 0.00in /  0mm 111 W/m2
17:44 60.4 °F /  15.8 °C 52.9 °F /  11.6 °C 29.67in /  1004.6hPa SSE 4mph /  6.4km/h 7mph /  11.3km/h 76% 0.00in /  0mm 105 W/m2
17:49 60.3 °F /  15.7 °C 53.1 °F /  11.7 °C 29.67in /  1004.6hPa SSE 4.2mph /  6.8km/h 7mph /  11.3km/h 76.8% 0.00in /  0mm 86 W/m2
17:54 60.4 °F /  15.8 °C 53.2 °F /  11.8 °C 29.67in /  1004.6hPa SSE 2.4mph /  3.9km/h 5mph /  8km/h 77% 0.00in /  0mm 90 W/m2
17:59 60.5 °F /  15.8 °C 53.3 °F /  11.8 °C 29.68in /  1005hPa SW 4mph /  6.4km/h 7mph /  11.3km/h 76.8% 0.00in /  0mm 86 W/m2
18:04 60.4 °F /  15.8 °C 53.1 °F /  11.7 °C 29.68in /  1005hPa SSW 2.9mph /  4.7km/h 7mph /  11.3km/h 76.6% 0.00in /  0mm 72 W/m2
18:09 60.2 °F /  15.7 °C 52.9 °F /  11.6 °C 29.68in /  1005hPa SW 4.1mph /  6.6km/h 8mph /  12.9km/h 76.8% 0.00in /  0mm 72 W/m2
18:14 60.1 °F /  15.6 °C 52.9 °F /  11.6 °C 29.68in /  1005hPa SSW 3mph /  4.8km/h 7mph /  11.3km/h 77% 0.00in /  0mm 72 W/m2
18:19 60.1 °F /  15.6 °C 52.9 °F /  11.6 °C 29.68in /  1005hPa South 3mph /  4.8km/h 6mph /  9.7km/h 77% 0.00in /  0mm 76 W/m2
18:23 59.9 °F /  15.5 °C 52.7 °F /  11.5 °C 29.68in /  1005hPa South 2.5mph /  4km/h 8mph /  12.9km/h 77% 0.00in /  0mm 77 W/m2
18:29 59.7 °F /  15.4 °C 52.5 °F /  11.4 °C 29.68in /  1005hPa SW 4.6mph /  7.4km/h 11mph /  17.7km/h 77% 0.00in /  0mm 77 W/m2
18:34 59.3 °F /  15.2 °C 52.1 °F /  11.2 °C 29.68in /  1005hPa SSW 4.3mph /  6.9km/h 9mph /  14.5km/h 77% 0.00in /  0mm 69 W/m2
18:39 59.1 °F /  15.1 °C 51.9 °F /  11.1 °C 29.69in /  1005.3hPa SW 3.4mph /  5.5km/h 7mph /  11.3km/h 77% 0.00in /  0mm 63 W/m2
18:44 58.7 °F /  14.8 °C 51.5 °F /  10.8 °C 29.69in /  1005.3hPa SW 4.4mph /  7.1km/h 8mph /  12.9km/h 77% 0.00in /  0mm 60 W/m2
18:49 58.5 °F /  14.7 °C 51.3 °F /  10.7 °C 29.69in /  1005.3hPa SSW 4.8mph /  7.7km/h 7mph /  11.3km/h 77% 0.00in /  0mm 58 W/m2
18:54 58.5 °F /  14.7 °C 51.4 °F /  10.8 °C 29.69in /  1005.3hPa SSW 2.6mph /  4.2km/h 7mph /  11.3km/h 77.4% 0.00in /  0mm 53 W/m2
18:59 58.5 °F /  14.7 °C 51.6 °F /  10.9 °C 29.69in /  1005.3hPa SSW 1.7mph /  2.7km/h 4mph /  6.4km/h 78% 0.00in /  0mm 49 W/m2
19:04 58.5 °F /  14.7 °C 51.6 °F /  10.9 °C 29.69in /  1005.3hPa WSW 3.9mph /  6.3km/h 6mph /  9.7km/h 78% 0.00in /  0mm 47 W/m2
19:09 58.2 °F /  14.6 °C 51.4 °F /  10.8 °C 29.69in /  1005.3hPa West 2.4mph /  3.9km/h 5mph /  8km/h 78% 0.00in /  0mm 49 W/m2
19:14 58.1 °F /  14.5 °C 51.3 °F /  10.7 °C 29.69in /  1005.3hPa WNW 3mph /  4.8km/h 5mph /  8km/h 78% 0.00in /  0mm 62 W/m2
19:19 57.7 °F /  14.3 °C 50.8 °F /  10.4 °C 29.69in /  1005.3hPa WNW 2.2mph /  3.5km/h 5mph /  8km/h 78% 0.00in /  0mm 77 W/m2
19:24 57.6 °F /  14.2 °C 50.7 °F /  10.4 °C 29.69in /  1005.3hPa WNW 2mph /  3.2km/h 4mph /  6.4km/h 78% 0.00in /  0mm 74 W/m2
19:29 57.6 °F /  14.2 °C 50.7 °F /  10.4 °C 29.69in /  1005.3hPa West 1mph /  1.6km/h 3mph /  4.8km/h 78% 0.00in /  0mm 98 W/m2
19:34 57.7 °F /  14.3 °C 50.9 °F /  10.5 °C 29.69in /  1005.3hPa WSW 3.2mph /  5.1km/h 6mph /  9.7km/h 78% 0.00in /  0mm 134 W/m2
19:39 57.7 °F /  14.3 °C 50.8 °F /  10.4 °C 29.70in /  1005.6hPa West 4.3mph /  6.9km/h 7mph /  11.3km/h 77.8% 0.00in /  0mm 125 W/m2
19:44 57.7 °F /  14.3 °C 50.7 °F /  10.4 °C 29.70in /  1005.6hPa SW 3mph /  4.8km/h 6mph /  9.7km/h 77.4% 0.00in /  0mm 98 W/m2
19:49 57.7 °F /  14.3 °C 50.7 °F /  10.4 °C 29.70in /  1005.6hPa WSW 2.4mph /  3.9km/h 5mph /  8km/h 77.6% 0.00in /  0mm 76 W/m2
19:54 57.6 °F /  14.2 °C 50.6 °F /  10.3 °C 29.70in /  1005.6hPa WSW 2.3mph /  3.7km/h 5mph /  8km/h 77.6% 0.00in /  0mm 58 W/m2
19:59 57.6 °F /  14.2 °C 50.7 °F /  10.4 °C 29.70in /  1005.6hPa WSW 1.3mph /  2.1km/h 4mph /  6.4km/h 78% 0.00in /  0mm 54 W/m2
20:04 57.6 °F /  14.2 °C 50.7 °F /  10.4 °C 29.69in /  1005.3hPa WSW 1.7mph /  2.7km/h 4mph /  6.4km/h 78% 0.00in /  0mm 51 W/m2
20:09 57.6 °F /  14.2 °C 50.7 °F /  10.4 °C 29.70in /  1005.6hPa WSW 1.7mph /  2.7km/h 4mph /  6.4km/h 78% 0.00in /  0mm 44 W/m2
20:14 57.6 °F /  14.2 °C 50.8 °F /  10.4 °C 29.70in /  1005.6hPa WSW 1.6mph /  2.6km/h 3mph /  4.8km/h 78% 0.00in /  0mm 30 W/m2
20:19 57.6 °F /  14.2 °C 51 °F /  10.6 °C 29.70in /  1005.6hPa WSW 0.4mph /  0.6km/h 3mph /  4.8km/h 78.8% 0.00in /  0mm 16 W/m2
20:24 57.6 °F /  14.2 °C 51.1 °F /  10.6 °C 29.70in /  1005.6hPa WSW 1.4mph /  2.3km/h 3mph /  4.8km/h 79% 0.00in /  0mm 11 W/m2
20:29 57.6 °F /  14.2 °C 51.2 °F /  10.7 °C 29.70in /  1005.6hPa WSW 1.3mph /  2.1km/h 4mph /  6.4km/h 79.4% 0.00in /  0mm 7 W/m2
20:34 57.6 °F /  14.2 °C 51.4 °F /  10.8 °C 29.70in /  1005.6hPa WSW 0.8mph /  1.3km/h 3mph /  4.8km/h 80% 0.00in /  0mm 0 W/m2
20:39 57.6 °F /  14.2 °C 51.5 °F /  10.8 °C 29.70in /  1005.6hPa WSW 1.7mph /  2.7km/h 3mph /  4.8km/h 80.2% 0.00in /  0mm 0 W/m2
20:44 57.5 °F /  14.2 °C 51.7 °F /  10.9 °C 29.70in /  1005.6hPa WSW 2.5mph /  4km/h 4mph /  6.4km/h 81% 0.00in /  0mm 0 W/m2
20:49 57.4 °F /  14.1 °C 51.8 °F /  11 °C 29.70in /  1005.6hPa West 2.9mph /  4.7km/h 5mph /  8km/h 81.6% 0.00in /  0mm 0 W/m2
20:54 57.4 °F /  14.1 °C 52 °F /  11.1 °C 29.71in /  1006hPa WSW 3.1mph /  5km/h 6mph /  9.7km/h 82% 0.00in /  0mm 0 W/m2
20:59 56.9 °F /  13.8 °C 51.5 °F /  10.8 °C 29.71in /  1006hPa WNW 5.2mph /  8.4km/h 11mph /  17.7km/h 82% 0.00in /  0mm 0 W/m2
21:04 56.7 °F /  13.7 °C 51.1 °F /  10.6 °C 29.71in /  1006hPa West 5.4mph /  8.7km/h 11mph /  17.7km/h 81.6% 0.00in /  0mm 0 W/m2
21:09 56.5 °F /  13.6 °C 50.8 °F /  10.4 °C 29.71in /  1006hPa West 5.2mph /  8.4km/h 9mph /  14.5km/h 81.4% 0.00in /  0mm 0 W/m2
21:14 56.1 °F /  13.4 °C 50.7 °F /  10.4 °C 29.71in /  1006hPa West 4.7mph /  7.6km/h 9mph /  14.5km/h 82% 0.00in /  0mm 0 W/m2
21:19 55.8 °F /  13.2 °C 50.6 °F /  10.3 °C 29.71in /  1006hPa West 3.7mph /  6km/h 7mph /  11.3km/h 82.6% 0.00in /  0mm 0 W/m2
21:24 55.8 °F /  13.2 °C 50.7 °F /  10.4 °C 29.71in /  1006hPa West 2.1mph /  3.4km/h 5mph /  8km/h 83% 0.00in /  0mm 0 W/m2
21:29 55.5 °F /  13.1 °C 50.7 °F /  10.4 °C 29.71in /  1006hPa WNW 2.4mph /  3.9km/h 6mph /  9.7km/h 83.6% 0.00in /  0mm 0 W/m2
21:34 55.3 °F /  12.9 °C 50.6 °F /  10.3 °C 29.72in /  1006.3hPa WNW 1.6mph /  2.6km/h 4mph /  6.4km/h 84% 0.00in /  0mm 0 W/m2
21:39 55.3 °F /  12.9 °C 50.7 °F /  10.4 °C 29.72in /  1006.3hPa WNW 0.4mph /  0.6km/h 3mph /  4.8km/h 84.6% 0.00in /  0mm 0 W/m2
21:44 55.1 °F /  12.8 °C 50.6 °F /  10.3 °C 29.72in /  1006.3hPa WNW 2.6mph /  4.2km/h 4mph /  6.4km/h 85% 0.00in /  0mm 0 W/m2
21:49 55 °F /  12.8 °C 50.5 °F /  10.3 °C 29.72in /  1006.3hPa WNW 2mph /  3.2km/h 4mph /  6.4km/h 85% 0.00in /  0mm 0 W/m2
21:54 54.9 °F /  12.7 °C 50.5 °F /  10.3 °C 29.72in /  1006.3hPa WNW 1.7mph /  2.7km/h 4mph /  6.4km/h 85.4% 0.00in /  0mm 0 W/m2
21:59 54.9 °F /  12.7 °C 50.7 °F /  10.4 °C 29.72in /  1006.3hPa WNW 1.6mph /  2.6km/h 3mph /  4.8km/h 86% 0.00in /  0mm 0 W/m2
22:04 54.8 °F /  12.7 °C 50.6 °F /  10.3 °C 29.72in /  1006.3hPa WNW 0.6mph /  1km/h 3mph /  4.8km/h 86% 0.00in /  0mm 0 W/m2
22:09 54.9 °F /  12.7 °C 50.7 °F /  10.4 °C 29.71in /  1006hPa Calm   1mph /  1.6km/h 86% 0.00in /  0mm 0 W/m2
22:14 54.7 °F /  12.6 °C 50.5 °F /  10.3 °C 29.71in /  1006hPa WNW 0.9mph /  1.4km/h 3mph /  4.8km/h 86% 0.00in /  0mm 0 W/m2
22:19 54.9 °F /  12.7 °C 51 °F /  10.6 °C 29.72in /  1006.3hPa WNW 0.6mph /  1km/h 2mph /  3.2km/h 86.8% 0.00in /  0mm 0 W/m2
22:24 54.9 °F /  12.7 °C 51.1 °F /  10.6 °C 29.71in /  1006hPa WNW 0.6mph /  1km/h 3mph /  4.8km/h 87% 0.00in /  0mm 0 W/m2
22:29 54.9 °F /  12.7 °C 51.2 °F /  10.7 °C 29.71in /  1006hPa Calm   1mph /  1.6km/h 87% 0.00in /  0mm 0 W/m2
22:34 55 °F /  12.8 °C 51.3 °F /  10.7 °C 29.72in /  1006.3hPa Calm     87% 0.00in /  0mm 0 W/m2
22:39 55 °F /  12.8 °C 51.3 °F /  10.7 °C 29.72in /  1006.3hPa Calm     87% 0.00in /  0mm 0 W/m2
22:44 55 °F /  12.8 °C 51.3 °F /  10.7 °C 29.72in /  1006.3hPa Calm     87% 0.00in /  0mm 0 W/m2
22:49 55 °F /  12.8 °C 51.3 °F /  10.7 °C 29.72in /  1006.3hPa Calm     87% 0.00in /  0mm 0 W/m2
22:54 55 °F /  12.8 °C 51.3 °F /  10.7 °C 29.72in /  1006.3hPa Calm     87% 0.00in /  0mm 0 W/m2
22:59 54.9 °F /  12.7 °C 51.1 °F /  10.6 °C 29.72in /  1006.3hPa Calm     87% 0.00in /  0mm 0 W/m2
23:04 54.9 °F /  12.7 °C 51.1 °F /  10.6 °C 29.72in /  1006.3hPa Calm     87% 0.00in /  0mm 0 W/m2
23:09 54.9 °F /  12.7 °C 51.1 °F /  10.6 °C 29.72in /  1006.3hPa Calm     87% 0.00in /  0mm 0 W/m2
23:14 55 °F /  12.8 °C 51.3 °F /  10.7 °C 29.72in /  1006.3hPa Calm     87% 0.00in /  0mm 0 W/m2
23:19 54.9 °F /  12.7 °C 51.2 °F /  10.7 °C 29.72in /  1006.3hPa Calm     87.2% 0.00in /  0mm 0 W/m2
23:24 54.8 °F /  12.7 °C 51.3 °F /  10.7 °C 29.72in /  1006.3hPa WNW 1.6mph /  2.6km/h 2mph /  3.2km/h 88% 0.00in /  0mm 0 W/m2
23:29 54.6 °F /  12.6 °C 50.9 °F /  10.5 °C 29.72in /  1006.3hPa WNW 1.3mph /  2.1km/h 2mph /  3.2km/h 87.2% 0.00in /  0mm 0 W/m2
23:34 54.3 °F /  12.4 °C 51 °F /  10.6 °C 29.72in /  1006.3hPa WNW 1.2mph /  1.9km/h 2mph /  3.2km/h 88% 0.00in /  0mm 0 W/m2
23:39 54.3 °F /  12.4 °C 50.9 °F /  10.5 °C 29.72in /  1006.3hPa WNW 1.1mph /  1.8km/h 2mph /  3.2km/h 88% 0.00in /  0mm 0 W/m2
23:44 54.3 °F /  12.4 °C 50.9 °F /  10.5 °C 29.72in /  1006.3hPa Calm   1mph /  1.6km/h 88% 0.00in /  0mm 0 W/m2
23:49 54.3 °F /  12.4 °C 50.9 °F /  10.5 °C 29.72in /  1006.3hPa Calm     88% 0.00in /  0mm 0 W/m2
23:54 54.3 °F /  12.4 °C 50.9 °F /  10.5 °C 29.72in /  1006.3hPa Calm     88% 0.00in /  0mm 0 W/m2
23:59 54.3 °F /  12.4 °C 50.9 °F /  10.5 °C 29.72in /  1006.3hPa Calm     88% 0.00in /  0mm 0 W/m2
Bath Spa Weather
Compliments of Weather Underground - 2 mb